createdAt,value
2018-02-12T00:00:50.763Z,2.90
2018-02-12T00:05:45.062Z,2.80
2018-02-12T00:10:39.394Z,2.80
2018-02-12T00:15:33.644Z,3.00
2018-02-12T00:20:28.713Z,3.10
2018-02-12T00:25:23.013Z,3.10
2018-02-12T00:30:17.277Z,3.20
2018-02-12T00:35:12.315Z,3.00
2018-02-12T00:40:06.615Z,3.00
2018-02-12T00:45:00.878Z,2.90
2018-02-12T00:49:56.075Z,2.90
2018-02-12T00:54:50.374Z,2.90
2018-02-12T00:59:44.850Z,3.00
2018-02-12T01:04:39.273Z,3.10
2018-02-12T01:09:33.769Z,3.10
2018-02-12T01:14:28.029Z,3.10
2018-02-12T01:19:23.082Z,3.00
2018-02-12T01:24:17.355Z,3.00
2018-02-12T01:29:11.646Z,3.00
2018-02-12T01:34:06.799Z,3.00
2018-02-12T01:39:01.146Z,2.90
2018-02-12T01:43:55.606Z,2.90
2018-02-12T01:48:49.859Z,2.80
2018-02-12T01:53:44.916Z,2.80
2018-02-12T01:58:39.209Z,2.80
2018-02-12T02:03:33.457Z,2.80
2018-02-12T02:08:28.510Z,2.80
2018-02-12T02:13:23.570Z,2.80
2018-02-12T02:18:17.838Z,2.70
2018-02-12T02:23:12.151Z,2.80
2018-02-12T02:28:06.425Z,2.80
2018-02-12T02:33:01.468Z,2.80
2018-02-12T02:37:56.086Z,2.80
2018-02-12T02:42:50.354Z,2.70
2018-02-12T02:47:45.648Z,2.90
2018-02-12T02:52:40.942Z,2.80
2018-02-12T02:57:35.209Z,2.80
2018-02-12T03:02:29.489Z,2.80
2018-02-12T03:07:24.785Z,2.70
2018-02-12T03:12:19.054Z,2.60
2018-02-12T03:17:13.503Z,2.60
2018-02-12T03:22:09.866Z,2.70
2018-02-12T03:27:04.918Z,2.70
2018-02-12T03:31:59.261Z,2.70
2018-02-12T03:36:53.565Z,2.80
2018-02-12T03:41:47.841Z,2.80
2018-02-12T03:46:41.935Z,2.80
2018-02-12T03:51:36.214Z,2.80
2018-02-12T03:56:30.608Z,2.90
2018-02-12T04:01:24.879Z,2.90
2018-02-12T04:06:19.284Z,2.90
2018-02-12T04:20:36.818Z,2.90
2018-02-12T04:25:31.100Z,2.90
2018-02-12T04:30:26.181Z,2.80
2018-02-12T04:35:20.472Z,2.80
2018-02-12T04:40:14.752Z,2.80
2018-02-12T04:45:09.047Z,2.80
2018-02-12T04:50:03.526Z,2.80
2018-02-12T04:54:58.728Z,2.80
2018-02-12T04:59:53.018Z,2.80
2018-02-12T05:04:47.307Z,2.80
2018-02-12T05:09:41.794Z,2.80
2018-02-12T05:14:36.060Z,2.70
2018-02-12T05:19:31.110Z,2.70
2018-02-12T05:24:25.418Z,2.70
2018-02-12T05:29:19.684Z,2.70
2018-02-12T05:34:13.979Z,2.70
2018-02-12T05:39:09.035Z,2.70
2018-02-12T05:44:03.580Z,2.70
2018-02-12T05:48:57.856Z,2.60
2018-02-12T05:53:52.158Z,2.50
2018-02-12T05:58:46.423Z,2.40
2018-02-12T06:03:40.704Z,2.40
2018-02-12T06:08:35.744Z,2.40
2018-02-12T06:13:30.049Z,2.40
2018-02-12T06:18:24.498Z,2.40
2018-02-12T06:23:19.566Z,2.40
2018-02-12T06:28:13.874Z,2.40
2018-02-12T06:33:08.165Z,2.40
2018-02-12T06:38:02.465Z,2.40
2018-02-12T06:42:56.813Z,2.50
2018-02-12T06:47:51.099Z,2.50
2018-02-12T06:52:45.380Z,2.60
2018-02-12T06:57:39.689Z,2.60
2018-02-12T07:02:33.983Z,2.60
2018-02-12T07:07:28.367Z,2.50
2018-02-12T07:12:22.679Z,2.40
2018-02-12T07:17:17.102Z,2.20
2018-02-12T07:22:11.531Z,2.00
2018-02-12T07:27:06.628Z,2.30
2018-02-12T07:32:00.735Z,2.20
2018-02-12T07:36:55.408Z,2.50
2018-02-12T07:41:49.808Z,2.60
2018-02-12T07:46:44.112Z,2.70
2018-02-12T07:51:38.444Z,2.90
2018-02-12T07:56:32.762Z,3.00
2018-02-12T08:01:27.850Z,3.10
2018-02-12T08:06:22.179Z,3.00
2018-02-12T08:11:16.451Z,3.10
2018-02-12T08:16:10.757Z,3.10
2018-02-12T08:21:05.038Z,3.20
2018-02-12T08:25:59.410Z,3.40
2018-02-12T08:30:54.456Z,3.60
2018-02-12T08:35:48.917Z,3.60
2018-02-12T08:40:43.228Z,4.00
2018-02-12T08:45:38.281Z,4.80
2018-02-12T08:50:32.594Z,4.80
2018-02-12T08:55:26.840Z,5.20
2018-02-12T09:00:21.794Z,5.40
2018-02-12T09:05:16.408Z,5.40
2018-02-12T09:10:10.715Z,5.30
2018-02-12T09:15:05.140Z,5.60
2018-02-12T09:19:59.643Z,6.20
2018-02-12T09:24:53.921Z,7.10
2018-02-12T09:29:48.333Z,11.20
2018-02-12T09:34:42.694Z,15.40
2018-02-12T09:39:37.899Z,12.10
2018-02-12T09:44:32.961Z,10.60
2018-02-12T09:49:27.311Z,10.50
2018-02-12T09:54:21.691Z,10.10
2018-02-12T09:59:16.952Z,8.90
2018-02-12T10:04:12.011Z,8.20
2018-02-12T10:09:06.060Z,8.10
2018-02-12T10:14:01.120Z,7.40
2018-02-12T10:18:55.389Z,7.40
2018-02-12T10:23:50.468Z,6.90
2018-02-12T10:28:44.764Z,6.80
2018-02-12T10:33:39.125Z,6.60
2018-02-12T10:38:33.439Z,6.50
2018-02-12T10:43:27.764Z,6.50
2018-02-12T10:48:22.039Z,6.50
2018-02-12T10:53:16.337Z,6.50
2018-02-12T10:58:10.645Z,6.60
2018-02-12T11:03:05.091Z,6.70
2018-02-12T11:07:59.553Z,6.50
2018-02-12T11:12:53.928Z,6.50
2018-02-12T11:17:48.987Z,7.00
2018-02-12T11:22:43.423Z,7.00
2018-02-12T11:27:37.739Z,7.50
2018-02-12T11:32:32.810Z,6.70
2018-02-12T11:37:27.124Z,6.60
2018-02-12T11:42:21.484Z,6.40
2018-02-12T11:47:15.994Z,6.30
2018-02-12T11:52:10.446Z,6.60
2018-02-12T11:57:04.826Z,6.80
2018-02-12T12:01:59.114Z,6.70
2018-02-12T12:06:53.409Z,6.90
2018-02-12T12:11:47.697Z,7.20
2018-02-12T12:16:41.792Z,7.70
2018-02-12T12:21:36.068Z,7.90
2018-02-12T12:26:31.206Z,8.00
2018-02-12T12:31:26.257Z,8.10
2018-02-12T12:36:20.676Z,8.00
2018-02-12T12:41:14.950Z,8.20
2018-02-12T12:46:09.273Z,8.00
2018-02-12T12:51:03.696Z,7.70
2018-02-12T12:55:58.038Z,7.50
2018-02-12T13:00:53.083Z,7.80
2018-02-12T13:05:47.387Z,7.80
2018-02-12T13:10:41.693Z,8.00
2018-02-12T13:15:36.036Z,8.00
2018-02-12T13:20:30.422Z,7.80
2018-02-12T13:25:24.708Z,7.50
2018-02-12T13:30:18.993Z,7.50
2018-02-12T13:35:13.289Z,7.20
2018-02-12T13:40:07.629Z,7.10
2018-02-12T13:45:02.205Z,7.20
2018-02-12T13:49:56.506Z,7.50
2018-02-12T13:54:50.986Z,7.60
2018-02-12T13:59:45.323Z,7.60
2018-02-12T14:04:39.616Z,7.80
2018-02-12T14:09:33.998Z,8.10
2018-02-12T14:14:28.604Z,8.10
2018-02-12T14:19:22.898Z,7.80
2018-02-12T14:24:17.685Z,7.80
2018-02-12T14:29:12.999Z,7.70
2018-02-12T14:34:07.285Z,7.60
2018-02-12T14:39:01.752Z,7.20
2018-02-12T14:43:56.656Z,6.90
2018-02-12T14:48:51.841Z,6.50
2018-02-12T14:53:47.217Z,5.60
2018-02-12T14:58:41.656Z,5.60
2018-02-12T15:03:36.187Z,4.90
2018-02-12T15:08:31.288Z,4.00
2018-02-12T15:13:25.604Z,3.90
2018-02-12T15:18:20.661Z,3.80
2018-02-12T15:23:15.668Z,3.80
2018-02-12T15:28:10.095Z,4.20
2018-02-12T15:33:04.399Z,4.40
2018-02-12T15:37:58.695Z,4.30
2018-02-12T15:42:53.499Z,4.10
2018-02-12T15:47:48.160Z,3.90
2018-02-12T15:52:43.275Z,3.80
2018-02-12T15:57:38.754Z,3.90
2018-02-12T16:02:33.349Z,3.90
2018-02-12T16:07:28.076Z,4.10
2018-02-12T16:12:22.355Z,4.30
2018-02-12T16:17:16.672Z,4.30
2018-02-12T16:22:10.953Z,4.20
2018-02-12T16:27:05.588Z,4.00
2018-02-12T16:32:00.157Z,3.80
2018-02-12T16:36:55.466Z,3.40
2018-02-12T16:41:50.526Z,3.20
2018-02-12T16:46:44.813Z,3.20
2018-02-12T16:51:39.860Z,2.80
2018-02-12T16:56:34.130Z,2.80
2018-02-12T17:01:29.195Z,2.50
2018-02-12T17:06:23.703Z,2.50
2018-02-12T17:11:18.319Z,2.40
2018-02-12T17:16:12.597Z,2.30
2018-02-12T17:21:06.870Z,2.20
2018-02-12T17:26:01.146Z,2.10
2018-02-12T17:30:56.187Z,1.90
2018-02-12T17:35:50.742Z,1.90
2018-02-12T17:40:45.004Z,1.90
2018-02-12T17:45:39.318Z,1.80
2018-02-12T17:50:33.872Z,1.80
2018-02-12T17:55:28.916Z,1.70
2018-02-12T18:00:23.188Z,1.60
2018-02-12T18:05:18.324Z,1.60
2018-02-12T18:10:12.564Z,1.60
2018-02-12T18:15:06.850Z,1.60
2018-02-12T18:20:01.278Z,1.50
2018-02-12T18:24:55.674Z,1.50
2018-02-12T18:29:49.967Z,1.50
2018-02-12T18:34:44.869Z,1.40
2018-02-12T18:39:39.285Z,1.50
2018-02-12T18:44:33.680Z,1.40
2018-02-12T18:49:27.954Z,1.40
2018-02-12T18:54:23.000Z,1.40
2018-02-12T18:59:17.439Z,1.40
2018-02-12T19:04:11.726Z,1.40
2018-02-12T19:09:05.751Z,1.30
2018-02-12T19:14:00.797Z,1.20
2018-02-12T19:18:55.184Z,1.20
2018-02-12T19:23:50.241Z,1.20
2018-02-12T19:28:44.564Z,1.10
2018-02-12T19:33:38.840Z,1.10
2018-02-12T19:38:33.178Z,1.10
2018-02-12T19:43:27.450Z,1.10
2018-02-12T19:48:21.758Z,1.10
2018-02-12T19:53:16.031Z,1.10
2018-02-12T19:58:10.407Z,1.00
2018-02-12T20:03:05.491Z,1.00
2018-02-12T20:07:59.795Z,0.90
2018-02-12T20:12:54.372Z,0.90
2018-02-12T20:17:48.686Z,0.90
2018-02-12T20:22:43.037Z,0.90
2018-02-12T20:27:38.414Z,0.80
2018-02-12T20:32:33.101Z,0.80
2018-02-12T20:37:27.590Z,0.80
2018-02-12T20:42:21.888Z,0.80
2018-02-12T20:47:17.044Z,0.50
2018-02-12T20:52:11.401Z,0.50
2018-02-12T20:57:07.545Z,0.30
2018-02-12T21:02:02.249Z,0.20
2018-02-12T21:06:57.413Z,0.10
2018-02-12T21:11:51.800Z,0.10
2018-02-12T21:16:46.080Z,0.10
2018-02-12T21:21:41.216Z,0.00
2018-02-12T21:26:36.525Z,0.00
2018-02-12T21:31:31.222Z,-0.10
2018-02-12T21:36:26.344Z,-0.10
2018-02-12T21:41:21.404Z,-0.20
2018-02-12T21:46:15.687Z,-0.20
2018-02-12T21:51:10.059Z,-0.20
2018-02-12T21:56:05.250Z,-0.30
2018-02-12T22:00:59.626Z,-0.30
2018-02-12T22:05:53.774Z,-0.30
2018-02-12T22:10:48.035Z,-0.30
2018-02-12T22:15:42.454Z,-0.30
2018-02-12T22:20:36.714Z,-0.30
2018-02-12T22:25:31.147Z,-0.20
2018-02-12T22:30:25.454Z,-0.20
2018-02-12T22:35:20.914Z,-0.30
2018-02-12T22:40:16.782Z,-0.30
2018-02-12T22:45:11.063Z,-0.30
2018-02-12T22:50:05.412Z,-0.30
2018-02-12T22:54:59.916Z,-0.30
2018-02-12T22:59:54.226Z,-0.40
2018-02-12T23:04:48.524Z,-0.40
2018-02-12T23:09:42.812Z,-0.40
2018-02-12T23:14:37.557Z,-0.40
2018-02-12T23:19:32.844Z,-0.40
2018-02-12T23:24:27.441Z,-0.40
2018-02-12T23:29:21.768Z,-0.40
2018-02-12T23:34:16.052Z,-0.40
2018-02-12T23:39:10.357Z,-0.30
2018-02-12T23:44:04.767Z,-0.30
2018-02-12T23:48:59.078Z,-0.30
2018-02-12T23:53:53.476Z,-0.30
2018-02-12T23:58:47.766Z,-0.20
